sensor_id;sensor_type;location;lat;lon;timestamp;temperature;humidity
37956;DHT22;23776;51.592;7.180;2023-08-01T00:00:03;16.40;75.00
37956;DHT22;23776;51.592;7.180;2023-08-01T00:02:30;16.30;74.70
37956;DHT22;23776;51.592;7.180;2023-08-01T00:04:56;16.30;75.10
37956;DHT22;23776;51.592;7.180;2023-08-01T00:07:22;16.30;74.40
37956;DHT22;23776;51.592;7.180;2023-08-01T00:09:47;16.30;74.90
37956;DHT22;23776;51.592;7.180;2023-08-01T00:12:13;16.30;75.40
37956;DHT22;23776;51.592;7.180;2023-08-01T00:14:39;16.30;74.80
37956;DHT22;23776;51.592;7.180;2023-08-01T00:17:05;16.20;74.30
37956;DHT22;23776;51.592;7.180;2023-08-01T00:19:31;16.30;74.90
37956;DHT22;23776;51.592;7.180;2023-08-01T00:21:56;16.20;74.30
37956;DHT22;23776;51.592;7.180;2023-08-01T00:24:22;16.20;74.70
37956;DHT22;23776;51.592;7.180;2023-08-01T00:26:47;16.10;74.70
37956;DHT22;23776;51.592;7.180;2023-08-01T00:29:13;16.00;74.00
37956;DHT22;23776;51.592;7.180;2023-08-01T00:31:39;16.10;74.30
37956;DHT22;23776;51.592;7.180;2023-08-01T00:34:05;16.10;74.10
37956;DHT22;23776;51.592;7.180;2023-08-01T00:36:30;16.10;74.00
37956;DHT22;23776;51.592;7.180;2023-08-01T00:38:56;16.00;73.40
37956;DHT22;23776;51.592;7.180;2023-08-01T00:41:22;16.00;73.70
37956;DHT22;23776;51.592;7.180;2023-08-01T00:43:47;16.00;73.60
37956;DHT22;23776;51.592;7.180;2023-08-01T00:46:13;16.00;73.30
37956;DHT22;23776;51.592;7.180;2023-08-01T00:48:38;16.00;73.30
37956;DHT22;23776;51.592;7.180;2023-08-01T00:51:05;16.00;73.70
37956;DHT22;23776;51.592;7.180;2023-08-01T00:53:32;16.00;73.40
37956;DHT22;23776;51.592;7.180;2023-08-01T00:55:58;15.90;73.60
37956;DHT22;23776;51.592;7.180;2023-08-01T00:58:24;15.90;73.30
37956;DHT22;23776;51.592;7.180;2023-08-01T01:00:50;15.90;73.40
37956;DHT22;23776;51.592;7.180;2023-08-01T01:03:16;16.00;73.40
37956;DHT22;23776;51.592;7.180;2023-08-01T01:06:06;15.90;73.80
37956;DHT22;23776;51.592;7.180;2023-08-01T01:08:33;15.90;73.30
37956;DHT22;23776;51.592;7.180;2023-08-01T01:10:59;15.90;73.80
37956;DHT22;23776;51.592;7.180;2023-08-01T01:13:24;15.90;73.80
37956;DHT22;23776;51.592;7.180;2023-08-01T01:15:50;15.90;73.40
37956;DHT22;23776;51.592;7.180;2023-08-01T01:18:16;15.90;73.40
37956;DHT22;23776;51.592;7.180;2023-08-01T01:20:41;15.90;73.90
37956;DHT22;23776;51.592;7.180;2023-08-01T01:23:08;15.90;73.80
37956;DHT22;23776;51.592;7.180;2023-08-01T01:25:35;15.90;73.80
37956;DHT22;23776;51.592;7.180;2023-08-01T01:28:04;15.80;72.90
37956;DHT22;23776;51.592;7.180;2023-08-01T01:30:30;15.80;73.10
37956;DHT22;23776;51.592;7.180;2023-08-01T01:32:56;15.80;72.70
37956;DHT22;23776;51.592;7.180;2023-08-01T01:35:23;15.80;72.60
37956;DHT22;23776;51.592;7.180;2023-08-01T01:37:49;15.80;72.80
37956;DHT22;23776;51.592;7.180;2023-08-01T01:40:14;15.80;73.70
37956;DHT22;23776;51.592;7.180;2023-08-01T01:42:40;15.70;73.70
37956;DHT22;23776;51.592;7.180;2023-08-01T01:45:06;15.70;72.90
37956;DHT22;23776;51.592;7.180;2023-08-01T01:47:31;15.70;72.70
37956;DHT22;23776;51.592;7.180;2023-08-01T01:49:57;15.70;73.00
37956;DHT22;23776;51.592;7.180;2023-08-01T01:52:23;15.80;73.00
37956;DHT22;23776;51.592;7.180;2023-08-01T01:54:48;15.80;73.00
37956;DHT22;23776;51.592;7.180;2023-08-01T01:57:14;15.70;73.00
37956;DHT22;23776;51.592;7.180;2023-08-01T01:59:39;17.40;74.50
37956;DHT22;23776;51.592;7.180;2023-08-01T02:02:05;15.80;73.40
37956;DHT22;23776;51.592;7.180;2023-08-01T02:04:31;15.80;73.40
37956;DHT22;23776;51.592;7.180;2023-08-01T02:06:56;15.80;73.50
37956;DHT22;23776;51.592;7.180;2023-08-01T02:09:22;15.80;73.40
37956;DHT22;23776;51.592;7.180;2023-08-01T02:11:48;15.70;73.90
37956;DHT22;23776;51.592;7.180;2023-08-01T02:14:14;15.70;74.10
37956;DHT22;23776;51.592;7.180;2023-08-01T02:16:40;15.80;74.00
37956;DHT22;23776;51.592;7.180;2023-08-01T02:19:05;15.70;73.50
37956;DHT22;23776;51.592;7.180;2023-08-01T02:21:31;15.70;73.90
37956;DHT22;23776;51.592;7.180;2023-08-01T02:23:56;15.90;74.10
37956;DHT22;23776;51.592;7.180;2023-08-01T02:26:22;15.80;74.70
37956;DHT22;23776;51.592;7.180;2023-08-01T02:28:49;15.80;73.70
37956;DHT22;23776;51.592;7.180;2023-08-01T02:31:15;13.70;73.10
37956;DHT22;23776;51.592;7.180;2023-08-01T02:33:41;15.80;74.10
37956;DHT22;23776;51.592;7.180;2023-08-01T02:36:07;15.80;74.10
37956;DHT22;23776;51.592;7.180;2023-08-01T02:38:32;15.80;74.00
37956;DHT22;23776;51.592;7.180;2023-08-01T02:40:58;15.90;74.40
37956;DHT22;23776;51.592;7.180;2023-08-01T02:43:23;15.80;74.90
37956;DHT22;23776;51.592;7.180;2023-08-01T02:45:49;15.80;74.50
37956;DHT22;23776;51.592;7.180;2023-08-01T02:48:15;15.80;74.00
37956;DHT22;23776;51.592;7.180;2023-08-01T02:50:41;15.80;74.50
37956;DHT22;23776;51.592;7.180;2023-08-01T02:53:06;15.70;73.80
37956;DHT22;23776;51.592;7.180;2023-08-01T02:55:32;15.70;74.60
37956;DHT22;23776;51.592;7.180;2023-08-01T02:57:58;15.70;73.10
37956;DHT22;23776;51.592;7.180;2023-08-01T03:00:23;15.70;73.50
37956;DHT22;23776;51.592;7.180;2023-08-01T03:02:49;15.70;73.60
37956;DHT22;23776;51.592;7.180;2023-08-01T03:05:15;15.80;73.50
37956;DHT22;23776;51.592;7.180;2023-08-01T03:07:40;15.70;72.70
37956;DHT22;23776;51.592;7.180;2023-08-01T03:10:06;15.70;73.20
37956;DHT22;23776;51.592;7.180;2023-08-01T03:12:32;15.70;73.20
37956;DHT22;23776;51.592;7.180;2023-08-01T03:14:58;15.70;73.30
37956;DHT22;23776;51.592;7.180;2023-08-01T03:17:24;15.70;73.20
37956;DHT22;23776;51.592;7.180;2023-08-01T03:19:49;15.70;73.10
37956;DHT22;23776;51.592;7.180;2023-08-01T03:22:15;15.70;73.20
37956;DHT22;23776;51.592;7.180;2023-08-01T03:24:41;15.70;73.80
37956;DHT22;23776;51.592;7.180;2023-08-01T03:27:06;15.60;73.20
37956;DHT22;23776;51.592;7.180;2023-08-01T03:29:32;15.60;73.90
37956;DHT22;23776;51.592;7.180;2023-08-01T03:31:58;15.60;73.40
37956;DHT22;23776;51.592;7.180;2023-08-01T03:34:23;15.80;73.60
37956;DHT22;23776;51.592;7.180;2023-08-01T03:36:49;15.70;73.60
37956;DHT22;23776;51.592;7.180;2023-08-01T03:39:15;15.70;73.20
37956;DHT22;23776;51.592;7.180;2023-08-01T03:41:41;15.70;73.60
37956;DHT22;23776;51.592;7.180;2023-08-01T03:44:06;15.70;73.70
37956;DHT22;23776;51.592;7.180;2023-08-01T03:46:32;15.60;74.30
37956;DHT22;23776;51.592;7.180;2023-08-01T03:48:57;18.10;75.90
37956;DHT22;23776;51.592;7.180;2023-08-01T03:51:23;15.60;75.30
37956;DHT22;23776;51.592;7.180;2023-08-01T03:53:49;15.60;75.50
37956;DHT22;23776;51.592;7.180;2023-08-01T03:56:15;15.50;74.50
37956;DHT22;23776;51.592;7.180;2023-08-01T03:58:41;15.60;74.40
37956;DHT22;23776;51.592;7.180;2023-08-01T04:01:06;15.60;74.20
37956;DHT22;23776;51.592;7.180;2023-08-01T04:03:32;15.60;74.30
37956;DHT22;23776;51.592;7.180;2023-08-01T04:05:58;15.50;74.00
37956;DHT22;23776;51.592;7.180;2023-08-01T04:08:23;15.50;73.90
37956;DHT22;23776;51.592;7.180;2023-08-01T04:10:49;15.60;74.30
37956;DHT22;23776;51.592;7.180;2023-08-01T04:13:18;15.60;74.20
37956;DHT22;23776;51.592;7.180;2023-08-01T04:15:43;15.50;73.80
37956;DHT22;23776;51.592;7.180;2023-08-01T04:18:09;15.60;74.00
37956;DHT22;23776;51.592;7.180;2023-08-01T04:20:35;15.50;74.20
37956;DHT22;23776;51.592;7.180;2023-08-01T04:23:00;15.50;74.20
37956;DHT22;23776;51.592;7.180;2023-08-01T04:25:26;15.50;74.80
37956;DHT22;23776;51.592;7.180;2023-08-01T04:27:53;19.00;76.50
37956;DHT22;23776;51.592;7.180;2023-08-01T04:30:19;15.50;75.00
37956;DHT22;23776;51.592;7.180;2023-08-01T04:32:44;15.50;74.80
37956;DHT22;23776;51.592;7.180;2023-08-01T04:35:10;15.50;75.50
37956;DHT22;23776;51.592;7.180;2023-08-01T04:37:35;15.40;75.10
37956;DHT22;23776;51.592;7.180;2023-08-01T04:40:01;15.50;75.60
37956;DHT22;23776;51.592;7.180;2023-08-01T04:42:27;15.50;76.00
37956;DHT22;23776;51.592;7.180;2023-08-01T04:44:54;15.40;75.20
37956;DHT22;23776;51.592;7.180;2023-08-01T04:47:20;15.40;75.50
37956;DHT22;23776;51.592;7.180;2023-08-01T04:49:46;15.30;75.40
37956;DHT22;23776;51.592;7.180;2023-08-01T04:52:12;15.30;75.90
37956;DHT22;23776;51.592;7.180;2023-08-01T04:54:38;15.30;75.80
37956;DHT22;23776;51.592;7.180;2023-08-01T04:57:04;15.30;75.40
37956;DHT22;23776;51.592;7.180;2023-08-01T04:59:30;15.30;76.20
37956;DHT22;23776;51.592;7.180;2023-08-01T05:01:55;15.20;75.00
37956;DHT22;23776;51.592;7.180;2023-08-01T05:04:21;15.20;75.40
37956;DHT22;23776;51.592;7.180;2023-08-01T05:06:46;15.20;75.20
37956;DHT22;23776;51.592;7.180;2023-08-01T05:09:12;15.20;74.50
37956;DHT22;23776;51.592;7.180;2023-08-01T05:11:38;15.30;75.20
37956;DHT22;23776;51.592;7.180;2023-08-01T05:14:03;15.20;75.00
37956;DHT22;23776;51.592;7.180;2023-08-01T05:16:29;15.20;75.50
37956;DHT22;23776;51.592;7.180;2023-08-01T05:18:54;15.20;74.70
37956;DHT22;23776;51.592;7.180;2023-08-01T05:21:20;15.20;74.60
37956;DHT22;23776;51.592;7.180;2023-08-01T05:23:45;15.20;75.20
37956;DHT22;23776;51.592;7.180;2023-08-01T05:26:11;15.30;75.20
37956;DHT22;23776;51.592;7.180;2023-08-01T05:28:37;15.30;75.10
37956;DHT22;23776;51.592;7.180;2023-08-01T05:31:02;15.30;75.40
37956;DHT22;23776;51.592;7.180;2023-08-01T05:33:28;15.40;76.00
37956;DHT22;23776;51.592;7.180;2023-08-01T05:35:53;15.50;76.00
37956;DHT22;23776;51.592;7.180;2023-08-01T05:38:19;15.50;75.70
37956;DHT22;23776;51.592;7.180;2023-08-01T05:40:44;15.50;76.30
37956;DHT22;23776;51.592;7.180;2023-08-01T05:43:10;16.50;76.70
37956;DHT22;23776;51.592;7.180;2023-08-01T05:45:36;15.50;75.70
37956;DHT22;23776;51.592;7.180;2023-08-01T05:48:02;15.50;75.50
37956;DHT22;23776;51.592;7.180;2023-08-01T05:50:27;15.60;75.50
37956;DHT22;23776;51.592;7.180;2023-08-01T05:52:53;15.60;75.80
37956;DHT22;23776;51.592;7.180;2023-08-01T05:55:19;15.60;73.00
37956;DHT22;23776;51.592;7.180;2023-08-01T05:57:45;16.30;74.30
37956;DHT22;23776;51.592;7.180;2023-08-01T06:00:11;15.60;73.10
37956;DHT22;23776;51.592;7.180;2023-08-01T06:02:37;15.70;73.80
37956;DHT22;23776;51.592;7.180;2023-08-01T06:05:02;15.70;71.20
37956;DHT22;23776;51.592;7.180;2023-08-01T06:07:29;15.80;72.00
37956;DHT22;23776;51.592;7.180;2023-08-01T06:09:54;15.80;72.60
37956;DHT22;23776;51.592;7.180;2023-08-01T06:12:20;15.90;72.90
37956;DHT22;23776;51.592;7.180;2023-08-01T06:14:46;15.90;72.20
37956;DHT22;23776;51.592;7.180;2023-08-01T06:17:13;15.90;69.30
37956;DHT22;23776;51.592;7.180;2023-08-01T06:19:39;15.90;66.90
37956;DHT22;23776;51.592;7.180;2023-08-01T06:22:05;15.80;66.40
37956;DHT22;23776;51.592;7.180;2023-08-01T06:24:30;15.80;70.20
37956;DHT22;23776;51.592;7.180;2023-08-01T06:26:56;15.80;70.90
37956;DHT22;23776;51.592;7.180;2023-08-01T06:29:21;15.80;71.30
37956;DHT22;23776;51.592;7.180;2023-08-01T06:31:47;15.80;72.10
37956;DHT22;23776;51.592;7.180;2023-08-01T06:34:13;16.10;71.30
37956;DHT22;23776;51.592;7.180;2023-08-01T06:36:38;15.80;73.10
37956;DHT22;23776;51.592;7.180;2023-08-01T06:39:04;15.80;73.00
37956;DHT22;23776;51.592;7.180;2023-08-01T06:41:29;15.90;73.90
37956;DHT22;23776;51.592;7.180;2023-08-01T06:43:55;15.80;72.60
37956;DHT22;23776;51.592;7.180;2023-08-01T06:46:21;15.90;73.80
37956;DHT22;23776;51.592;7.180;2023-08-01T06:48:46;15.90;74.20
37956;DHT22;23776;51.592;7.180;2023-08-01T06:51:12;16.00;74.00
37956;DHT22;23776;51.592;7.180;2023-08-01T06:53:37;16.20;73.60
37956;DHT22;23776;51.592;7.180;2023-08-01T06:56:03;16.10;73.20
37956;DHT22;23776;51.592;7.180;2023-08-01T06:58:29;16.00;71.80
37956;DHT22;23776;51.592;7.180;2023-08-01T07:00:54;16.00;71.50
37956;DHT22;23776;51.592;7.180;2023-08-01T07:03:20;16.10;73.10
37956;DHT22;23776;51.592;7.180;2023-08-01T07:05:46;16.20;73.60
37956;DHT22;23776;51.592;7.180;2023-08-01T07:08:11;16.30;72.80
37956;DHT22;23776;51.592;7.180;2023-08-01T07:10:37;16.40;66.20
37956;DHT22;23776;51.592;7.180;2023-08-01T07:13:03;16.40;64.30
37956;DHT22;23776;51.592;7.180;2023-08-01T07:15:30;16.50;67.60
37956;DHT22;23776;51.592;7.180;2023-08-01T07:17:56;16.50;50.80
37956;DHT22;23776;51.592;7.180;2023-08-01T07:20:22;16.60;56.90
37956;DHT22;23776;51.592;7.180;2023-08-01T07:22:48;16.70;51.70
37956;DHT22;23776;51.592;7.180;2023-08-01T07:25:13;16.70;47.90
37956;DHT22;23776;51.592;7.180;2023-08-01T07:27:39;16.70;22.40
37956;DHT22;23776;51.592;7.180;2023-08-01T07:30:05;16.70;26.60
37956;DHT22;23776;51.592;7.180;2023-08-01T07:32:31;16.80;40.90
37956;DHT22;23776;51.592;7.180;2023-08-01T07:34:56;17.00;46.00
37956;DHT22;23776;51.592;7.180;2023-08-01T07:37:22;17.20;23.00
37956;DHT22;23776;51.592;7.180;2023-08-01T07:39:49;17.20;9.50
37956;DHT22;23776;51.592;7.180;2023-08-01T07:44:41;17.30;1.00
37956;DHT22;23776;51.592;7.180;2023-08-01T07:47:07;17.50;1.00
37956;DHT22;23776;51.592;7.180;2023-08-01T07:49:33;17.40;1.00
37956;DHT22;23776;51.592;7.180;2023-08-01T07:51:59;17.60;1.00
37956;DHT22;23776;51.592;7.180;2023-08-01T07:54:24;17.60;1.00
37956;DHT22;23776;51.592;7.180;2023-08-01T07:56:50;17.50;1.00
37956;DHT22;23776;51.592;7.180;2023-08-01T07:59:16;17.40;1.00
37956;DHT22;23776;51.592;7.180;2023-08-01T08:01:41;17.50;1.00
37956;DHT22;23776;51.592;7.180;2023-08-01T08:04:07;17.50;1.00
37956;DHT22;23776;51.592;7.180;2023-08-01T08:06:33;17.40;1.00
37956;DHT22;23776;51.592;7.180;2023-08-01T08:08:58;17.30;1.00
37956;DHT22;23776;51.592;7.180;2023-08-01T08:11:24;17.50;1.00
37956;DHT22;23776;51.592;7.180;2023-08-01T08:13:50;17.40;1.00
37956;DHT22;23776;51.592;7.180;2023-08-01T08:16:15;17.60;1.00
37956;DHT22;23776;51.592;7.180;2023-08-01T08:18:41;17.80;1.00
37956;DHT22;23776;51.592;7.180;2023-08-01T08:21:07;17.70;1.00
37956;DHT22;23776;51.592;7.180;2023-08-01T08:23:32;17.60;1.00
37956;DHT22;23776;51.592;7.180;2023-08-01T08:25:58;17.60;1.00
37956;DHT22;23776;51.592;7.180;2023-08-01T08:28:29;17.70;1.00
37956;DHT22;23776;51.592;7.180;2023-08-01T08:30:55;17.60;1.00
37956;DHT22;23776;51.592;7.180;2023-08-01T08:33:21;17.60;1.00
37956;DHT22;23776;51.592;7.180;2023-08-01T08:35:47;17.70;1.00
37956;DHT22;23776;51.592;7.180;2023-08-01T08:38:13;17.90;1.00
37956;DHT22;23776;51.592;7.180;2023-08-01T08:40:41;17.90;1.00
37956;DHT22;23776;51.592;7.180;2023-08-01T08:43:09;20.50;1.00
37956;DHT22;23776;51.592;7.180;2023-08-01T08:45:35;19.90;1.00
37956;DHT22;23776;51.592;7.180;2023-08-01T08:48:08;18.50;1.00
37956;DHT22;23776;51.592;7.180;2023-08-01T08:50:35;18.50;1.00
37956;DHT22;23776;51.592;7.180;2023-08-01T08:53:02;18.50;1.00
37956;DHT22;23776;51.592;7.180;2023-08-01T08:55:28;18.40;1.00
37956;DHT22;23776;51.592;7.180;2023-08-01T08:57:54;18.20;1.00
37956;DHT22;23776;51.592;7.180;2023-08-01T09:00:21;19.30;1.00
37956;DHT22;23776;51.592;7.180;2023-08-01T09:02:47;18.20;1.00
37956;DHT22;23776;51.592;7.180;2023-08-01T09:05:13;18.30;1.00
37956;DHT22;23776;51.592;7.180;2023-08-01T09:07:42;18.60;1.00
37956;DHT22;23776;51.592;7.180;2023-08-01T09:10:08;18.60;1.00
37956;DHT22;23776;51.592;7.180;2023-08-01T09:12:34;18.50;1.00
37956;DHT22;23776;51.592;7.180;2023-08-01T09:15:00;18.40;1.00
37956;DHT22;23776;51.592;7.180;2023-08-01T09:17:26;18.50;1.00
37956;DHT22;23776;51.592;7.180;2023-08-01T09:20:07;18.40;1.00
37956;DHT22;23776;51.592;7.180;2023-08-01T09:22:46;18.50;99.90
37956;DHT22;23776;51.592;7.180;2023-08-01T09:25:13;18.70;1.00
37956;DHT22;23776;51.592;7.180;2023-08-01T09:27:38;19.00;99.90
37956;DHT22;23776;51.592;7.180;2023-08-01T09:30:14;19.00;99.90
37956;DHT22;23776;51.592;7.180;2023-08-01T09:32:53;19.40;99.90
37956;DHT22;23776;51.592;7.180;2023-08-01T09:35:19;19.60;99.90
37956;DHT22;23776;51.592;7.180;2023-08-01T09:37:44;19.80;26.80
37956;DHT22;23776;51.592;7.180;2023-08-01T09:40:10;19.90;1.00
37956;DHT22;23776;51.592;7.180;2023-08-01T09:42:43;19.90;1.00
37956;DHT22;23776;51.592;7.180;2023-08-01T09:45:14;19.60;99.90
37956;DHT22;23776;51.592;7.180;2023-08-01T09:47:41;19.50;1.00
37956;DHT22;23776;51.592;7.180;2023-08-01T09:50:06;19.50;1.00
37956;DHT22;23776;51.592;7.180;2023-08-01T09:52:32;19.40;99.90
37956;DHT22;23776;51.592;7.180;2023-08-01T09:54:58;19.20;1.00
37956;DHT22;23776;51.592;7.180;2023-08-01T09:57:28;19.50;99.90
37956;DHT22;23776;51.592;7.180;2023-08-01T09:59:56;19.50;99.90
37956;DHT22;23776;51.592;7.180;2023-08-01T10:02:24;19.60;99.90
37956;DHT22;23776;51.592;7.180;2023-08-01T10:04:51;19.60;1.00
37956;DHT22;23776;51.592;7.180;2023-08-01T10:07:26;19.80;1.00
37956;DHT22;23776;51.592;7.180;2023-08-01T10:09:54;19.80;1.00
37956;DHT22;23776;51.592;7.180;2023-08-01T10:12:22;19.90;1.00
37956;DHT22;23776;51.592;7.180;2023-08-01T10:14:48;19.80;99.90
37956;DHT22;23776;51.592;7.180;2023-08-01T10:17:14;19.70;86.80
37956;DHT22;23776;51.592;7.180;2023-08-01T10:19:42;19.60;1.00
37956;DHT22;23776;51.592;7.180;2023-08-01T10:22:09;19.50;99.90
37956;DHT22;23776;51.592;7.180;2023-08-01T10:24:36;19.00;1.00
37956;DHT22;23776;51.592;7.180;2023-08-01T10:27:18;18.20;1.00
37956;DHT22;23776;51.592;7.180;2023-08-01T10:29:44;18.10;1.00
37956;DHT22;23776;51.592;7.180;2023-08-01T10:32:10;18.00;1.00
37956;DHT22;23776;51.592;7.180;2023-08-01T10:34:36;17.70;1.00
37956;DHT22;23776;51.592;7.180;2023-08-01T10:37:02;17.60;1.00
37956;DHT22;23776;51.592;7.180;2023-08-01T10:39:28;17.60;1.00
37956;DHT22;23776;51.592;7.180;2023-08-01T10:42:02;17.50;1.00
37956;DHT22;23776;51.592;7.180;2023-08-01T10:44:28;17.40;1.00
37956;DHT22;23776;51.592;7.180;2023-08-01T10:47:04;17.40;1.00
37956;DHT22;23776;51.592;7.180;2023-08-01T10:49:40;17.30;1.00
37956;DHT22;23776;51.592;7.180;2023-08-01T10:54:43;17.10;1.00
37956;DHT22;23776;51.592;7.180;2023-08-01T10:57:15;16.80;1.00
37956;DHT22;23776;51.592;7.180;2023-08-01T10:59:42;16.70;1.00
37956;DHT22;23776;51.592;7.180;2023-08-01T11:02:08;16.60;14.70
37956;DHT22;23776;51.592;7.180;2023-08-01T11:04:34;17.00;26.50
37956;DHT22;23776;51.592;7.180;2023-08-01T11:07:01;16.40;36.60
37956;DHT22;23776;51.592;7.180;2023-08-01T11:09:27;16.50;36.30
37956;DHT22;23776;51.592;7.180;2023-08-01T11:11:55;16.50;39.70
37956;DHT22;23776;51.592;7.180;2023-08-01T11:14:28;16.70;30.50
37956;DHT22;23776;51.592;7.180;2023-08-01T11:16:55;16.70;32.10
37956;DHT22;23776;51.592;7.180;2023-08-01T11:19:24;16.90;20.00
37956;DHT22;23776;51.592;7.180;2023-08-01T11:21:50;18.00;21.80
37956;DHT22;23776;51.592;7.180;2023-08-01T11:24:18;17.40;23.50
37956;DHT22;23776;51.592;7.180;2023-08-01T11:26:48;17.50;2.30
37956;DHT22;23776;51.592;7.180;2023-08-01T11:29:15;17.80;1.00
37956;DHT22;23776;51.592;7.180;2023-08-01T11:31:51;17.90;1.00
37956;DHT22;23776;51.592;7.180;2023-08-01T11:34:18;18.10;1.00
37956;DHT22;23776;51.592;7.180;2023-08-01T11:36:44;18.40;1.00
37956;DHT22;23776;51.592;7.180;2023-08-01T11:39:12;18.70;1.00
37956;DHT22;23776;51.592;7.180;2023-08-01T11:41:38;18.80;1.00
37956;DHT22;23776;51.592;7.180;2023-08-01T11:44:04;18.90;1.00
37956;DHT22;23776;51.592;7.180;2023-08-01T11:46:34;19.20;1.00
37956;DHT22;23776;51.592;7.180;2023-08-01T11:49:01;19.50;1.00
37956;DHT22;23776;51.592;7.180;2023-08-01T11:51:28;19.50;99.90
37956;DHT22;23776;51.592;7.180;2023-08-01T11:54:01;19.40;99.90
37956;DHT22;23776;51.592;7.180;2023-08-01T11:56:27;19.40;78.30
37956;DHT22;23776;51.592;7.180;2023-08-01T11:58:53;19.70;91.20
37956;DHT22;23776;51.592;7.180;2023-08-01T12:01:18;18.90;82.60
37956;DHT22;23776;51.592;7.180;2023-08-01T12:03:49;19.90;99.90
37956;DHT22;23776;51.592;7.180;2023-08-01T12:06:15;19.60;99.90
37956;DHT22;23776;51.592;7.180;2023-08-01T12:08:42;19.10;99.90
37956;DHT22;23776;51.592;7.180;2023-08-01T12:11:23;19.00;99.90
37956;DHT22;23776;51.592;7.180;2023-08-01T12:14:13;19.10;97.10
37956;DHT22;23776;51.592;7.180;2023-08-01T12:16:44;19.40;99.90
37956;DHT22;23776;51.592;7.180;2023-08-01T12:19:10;19.80;14.50
37956;DHT22;23776;51.592;7.180;2023-08-01T12:21:36;20.00;43.80
37956;DHT22;23776;51.592;7.180;2023-08-01T12:24:02;20.50;1.00
37956;DHT22;23776;51.592;7.180;2023-08-01T12:26:28;20.80;1.00
37956;DHT22;23776;51.592;7.180;2023-08-01T12:28:54;20.80;1.00
37956;DHT22;23776;51.592;7.180;2023-08-01T12:31:22;20.70;1.00
37956;DHT22;23776;51.592;7.180;2023-08-01T12:33:48;21.00;99.90
37956;DHT22;23776;51.592;7.180;2023-08-01T12:36:15;21.30;99.90
37956;DHT22;23776;51.592;7.180;2023-08-01T12:38:40;21.80;99.90
37956;DHT22;23776;51.592;7.180;2023-08-01T12:43:32;21.40;1.00
37956;DHT22;23776;51.592;7.180;2023-08-01T12:45:58;21.10;99.90
37956;DHT22;23776;51.592;7.180;2023-08-01T12:48:28;21.20;99.90
37956;DHT22;23776;51.592;7.180;2023-08-01T12:50:53;21.40;74.20
37956;DHT22;23776;51.592;7.180;2023-08-01T12:53:20;23.10;1.00
37956;DHT22;23776;51.592;7.180;2023-08-01T12:55:48;21.80;1.00
37956;DHT22;23776;51.592;7.180;2023-08-01T12:58:14;21.90;99.90
37956;DHT22;23776;51.592;7.180;2023-08-01T13:00:40;21.90;99.90
37956;DHT22;23776;51.592;7.180;2023-08-01T13:03:06;22.30;99.90
37956;DHT22;23776;51.592;7.180;2023-08-01T13:05:37;23.10;99.90
37956;DHT22;23776;51.592;7.180;2023-08-01T13:08:03;23.10;99.90
37956;DHT22;23776;51.592;7.180;2023-08-01T13:10:33;22.70;99.90
37956;DHT22;23776;51.592;7.180;2023-08-01T13:12:59;22.70;99.90
37956;DHT22;23776;51.592;7.180;2023-08-01T13:15:25;22.50;1.00
37956;DHT22;23776;51.592;7.180;2023-08-01T13:17:51;23.50;99.90
37956;DHT22;23776;51.592;7.180;2023-08-01T13:20:16;23.70;99.90
37956;DHT22;23776;51.592;7.180;2023-08-01T13:22:43;25.10;99.90
37956;DHT22;23776;51.592;7.180;2023-08-01T13:25:08;26.10;1.00
37956;DHT22;23776;51.592;7.180;2023-08-01T13:27:34;28.20;99.90
37956;DHT22;23776;51.592;7.180;2023-08-01T13:30:01;28.20;99.90
37956;DHT22;23776;51.592;7.180;2023-08-01T13:32:27;27.90;99.90
37956;DHT22;23776;51.592;7.180;2023-08-01T13:34:53;28.10;99.90
37956;DHT22;23776;51.592;7.180;2023-08-01T13:37:18;28.50;99.90
37956;DHT22;23776;51.592;7.180;2023-08-01T13:39:44;28.50;99.90
37956;DHT22;23776;51.592;7.180;2023-08-01T13:42:12;27.40;99.90
37956;DHT22;23776;51.592;7.180;2023-08-01T13:44:38;26.70;99.90
37956;DHT22;23776;51.592;7.180;2023-08-01T13:47:03;25.00;99.90
37956;DHT22;23776;51.592;7.180;2023-08-01T13:49:30;23.90;99.90
37956;DHT22;23776;51.592;7.180;2023-08-01T13:51:56;23.30;99.90
37956;DHT22;23776;51.592;7.180;2023-08-01T13:54:21;23.50;1.00
37956;DHT22;23776;51.592;7.180;2023-08-01T13:56:47;23.80;99.90
37956;DHT22;23776;51.592;7.180;2023-08-01T13:59:12;24.70;99.90
37956;DHT22;23776;51.592;7.180;2023-08-01T14:01:38;25.30;99.90
37956;DHT22;23776;51.592;7.180;2023-08-01T14:04:04;24.90;99.90
37956;DHT22;23776;51.592;7.180;2023-08-01T14:06:30;24.60;99.90
37956;DHT22;23776;51.592;7.180;2023-08-01T14:08:55;25.50;99.90
37956;DHT22;23776;51.592;7.180;2023-08-01T14:11:22;25.70;99.90
37956;DHT22;23776;51.592;7.180;2023-08-01T14:13:48;26.30;99.90
37956;DHT22;23776;51.592;7.180;2023-08-01T14:16:14;26.40;99.90
37956;DHT22;23776;51.592;7.180;2023-08-01T14:18:40;25.20;99.90
37956;DHT22;23776;51.592;7.180;2023-08-01T14:21:05;25.00;99.90
37956;DHT22;23776;51.592;7.180;2023-08-01T14:23:31;25.90;99.90
37956;DHT22;23776;51.592;7.180;2023-08-01T14:25:58;26.60;99.90
37956;DHT22;23776;51.592;7.180;2023-08-01T14:28:23;28.60;99.90
37956;DHT22;23776;51.592;7.180;2023-08-01T14:30:49;29.50;99.90
37956;DHT22;23776;51.592;7.180;2023-08-01T14:33:14;30.40;99.90
37956;DHT22;23776;51.592;7.180;2023-08-01T14:35:40;30.40;99.90
37956;DHT22;23776;51.592;7.180;2023-08-01T14:38:06;31.10;99.90
37956;DHT22;23776;51.592;7.180;2023-08-01T14:40:32;30.20;99.90
37956;DHT22;23776;51.592;7.180;2023-08-01T14:42:59;30.10;99.90
37956;DHT22;23776;51.592;7.180;2023-08-01T14:45:25;29.70;99.90
37956;DHT22;23776;51.592;7.180;2023-08-01T14:47:50;29.40;99.90
37956;DHT22;23776;51.592;7.180;2023-08-01T14:50:16;28.80;99.90
37956;DHT22;23776;51.592;7.180;2023-08-01T14:52:42;30.20;99.90
37956;DHT22;23776;51.592;7.180;2023-08-01T14:55:08;29.20;99.90
37956;DHT22;23776;51.592;7.180;2023-08-01T14:57:34;30.30;99.90
37956;DHT22;23776;51.592;7.180;2023-08-01T15:00:00;29.90;99.90
37956;DHT22;23776;51.592;7.180;2023-08-01T15:02:26;30.50;99.90
37956;DHT22;23776;51.592;7.180;2023-08-01T15:04:53;31.10;99.90
37956;DHT22;23776;51.592;7.180;2023-08-01T15:07:19;30.60;96.50
37956;DHT22;23776;51.592;7.180;2023-08-01T15:09:45;30.50;99.90
37956;DHT22;23776;51.592;7.180;2023-08-01T15:12:11;28.70;99.90
37956;DHT22;23776;51.592;7.180;2023-08-01T15:14:37;28.50;99.90
37956;DHT22;23776;51.592;7.180;2023-08-01T15:17:03;28.90;99.90
37956;DHT22;23776;51.592;7.180;2023-08-01T15:19:29;25.40;97.40
37956;DHT22;23776;51.592;7.180;2023-08-01T15:21:55;27.30;99.90
37956;DHT22;23776;51.592;7.180;2023-08-01T15:24:20;27.80;99.90
37956;DHT22;23776;51.592;7.180;2023-08-01T15:26:46;28.50;99.90
37956;DHT22;23776;51.592;7.180;2023-08-01T15:29:13;29.00;99.70
37956;DHT22;23776;51.592;7.180;2023-08-01T15:31:39;28.80;99.90
37956;DHT22;23776;51.592;7.180;2023-08-01T15:34:05;27.80;98.40
37956;DHT22;23776;51.592;7.180;2023-08-01T15:36:30;25.80;99.90